Time;durP1;ratioP1;P1;durP2;ratioP2;P2;SDS_P1;SDS_P2;PMS_P1;PMS_P2;Temp;Humidity;BMP_temperature;BMP_pressure;BME280_temperature;BME280_humidity;BME280_pressure;Samples;Min_cycle;Max_cycle;Signal;HPM_P1;HPM_P2
2023/12/16 00:00:40;;;;;;;35.87;8.27;;;;;;;7.52;100.00;103114.16;5076081;28;20119;-62
2023/12/16 00:03:05;;;;;;;24.80;7.63;;;;;;;7.54;100.00;103115.25;5072438;28;20052;-62
2023/12/16 00:05:30;;;;;;;26.40;7.53;;;;;;;7.54;100.00;103123.13;5072313;28;20044;-61
2023/12/16 00:07:56;;;;;;;28.30;7.43;;;;;;;7.56;100.00;103119.84;5072157;28;20524;-62
2023/12/16 00:10:21;;;;;;;24.17;7.47;;;;;;;7.56;100.00;103111.94;5071603;28;20298;-63
2023/12/16 00:12:47;;;;;;;30.20;8.23;;;;;;;7.56;100.00;103106.69;5072016;28;20028;-62
2023/12/16 00:15:13;;;;;;;28.00;7.87;;;;;;;7.60;100.00;103102.63;5071625;28;20044;-63
2023/12/16 00:17:39;;;;;;;27.38;7.60;;;;;;;7.62;100.00;103103.69;5072184;28;20094;-62
2023/12/16 00:20:05;;;;;;;25.90;7.83;;;;;;;7.64;100.00;103104.78;5071502;28;20040;-63
2023/12/16 00:22:31;;;;;;;26.67;7.78;;;;;;;7.66;100.00;103113.69;5071301;28;20357;-62
2023/12/16 00:24:56;;;;;;;28.20;8.97;;;;;;;7.66;100.00;103113.69;5071932;28;20044;-62
2023/12/16 00:27:22;;;;;;;30.48;9.15;;;;;;;7.66;100.00;103114.63;5071827;28;20451;-62
2023/12/16 00:31:59;;;;;;;28.05;8.70;;;;;;;7.63;100.00;103110.81;5087814;28;20367;-61
2023/12/16 00:34:24;;;;;;;34.60;9.20;;;;;;;7.63;100.00;103108.19;5087614;28;20028;-61
2023/12/16 00:36:50;;;;;;;24.92;7.78;;;;;;;7.63;100.00;103111.72;5087260;28;20643;-60
2023/12/16 00:39:15;;;;;;;24.20;7.30;;;;;;;7.63;100.00;103108.19;5086977;28;20040;-61
2023/12/16 00:41:41;;;;;;;26.57;8.73;;;;;;;7.62;100.00;103106.31;5087501;28;20229;-61
2023/12/16 00:44:06;;;;;;;23.73;8.73;;;;;;;7.60;100.00;103100.91;5087748;28;20082;-61
2023/12/16 00:46:32;;;;;;;30.65;8.80;;;;;;;7.60;100.00;103102.63;5087353;28;20041;-63
2023/12/16 00:48:57;;;;;;;24.00;8.37;;;;;;;7.58;100.00;103101.56;5086977;28;20511;-62
2023/12/16 00:51:22;;;;;;;27.70;8.60;;;;;;;7.58;100.00;103099.88;5087326;28;20028;-62
2023/12/16 00:53:48;;;;;;;32.40;8.00;;;;;;;7.56;100.00;103101.44;5087426;28;20156;-61
2023/12/16 00:56:13;;;;;;;26.23;8.60;;;;;;;7.58;100.00;103104.22;5087438;28;20035;-62
2023/12/16 00:58:38;;;;;;;27.17;8.07;;;;;;;7.56;100.00;103100.50;5086789;28;20039;-61
2023/12/16 01:01:04;;;;;;;26.90;8.67;;;;;;;7.59;100.00;103111.31;5107164;28;20445;-62
2023/12/16 01:03:29;;;;;;;33.27;8.77;;;;;;;7.58;100.00;103109.47;5107969;28;20040;-62
2023/12/16 01:05:55;;;;;;;27.60;7.97;;;;;;;7.59;100.00;103116.59;5107321;28;20051;-61
2023/12/16 01:08:20;;;;;;;26.20;7.80;;;;;;;7.59;100.00;103120.13;5107132;28;20563;-62
2023/12/16 01:10:45;;;;;;;24.40;7.60;;;;;;;7.61;100.00;103109.72;5107219;28;20036;-63
2023/12/16 01:13:11;;;;;;;23.80;6.90;;;;;;;7.63;100.00;103118.69;5107473;28;20492;-63
2023/12/16 01:15:36;;;;;;;23.70;8.27;;;;;;;7.62;100.00;103122.09;5107460;28;20111;-62
2023/12/16 01:18:02;;;;;;;27.47;7.27;;;;;;;7.63;100.00;103118.69;5107343;28;20128;-62
2023/12/16 01:20:27;;;;;;;26.37;8.13;;;;;;;7.62;100.00;103122.09;5105431;28;20502;-61
2023/12/16 01:22:52;;;;;;;27.60;8.13;;;;;;;7.63;100.00;103119.63;5106909;28;20381;-62
2023/12/16 01:25:18;;;;;;;34.77;8.23;;;;;;;7.63;100.00;103117.00;5107410;28;20484;-62
2023/12/16 01:27:43;;;;;;;26.80;7.20;;;;;;;7.63;100.00;103121.31;5107089;28;20127;-63
2023/12/16 01:30:09;;;;;;;22.13;6.70;;;;;;;7.63;100.00;103113.44;5106286;28;20539;-62
2023/12/16 01:32:34;;;;;;;18.65;7.15;;;;;;;7.62;100.00;103104.63;5106854;28;20043;-62
2023/12/16 01:34:59;;;;;;;24.60;7.60;;;;;;;7.65;100.00;103101.31;5107204;28;20403;-62
2023/12/16 01:37:26;;;;;;;23.03;7.53;;;;;;;7.65;100.00;103117.09;5107064;28;20119;-62
2023/12/16 01:39:52;;;;;;;21.70;6.90;;;;;;;7.64;100.00;103116.22;5106250;28;20093;-63
2023/12/16 01:42:18;;;;;;;25.50;7.13;;;;;;;7.65;100.00;103117.09;5099492;28;20074;-62
2023/12/16 01:44:43;;;;;;;28.30;7.73;;;;;;;7.66;100.00;103125.16;5093423;28;20139;-62
2023/12/16 01:47:08;;;;;;;25.70;6.93;;;;;;;7.68;100.00;103122.66;5093476;28;20444;-61
2023/12/16 01:49:34;;;;;;;22.08;6.13;;;;;;;7.71;100.00;103122.94;5092634;28;20044;-62
2023/12/16 01:51:59;;;;;;;27.87;6.17;;;;;;;7.72;100.00;103125.72;5093108;28;20064;-62
2023/12/16 01:54:26;;;;;;;25.67;6.30;;;;;;;7.74;100.00;103120.59;5093258;28;20170;-62
2023/12/16 01:57:03;;;;;;;24.00;6.90;;;;;;;7.75;100.00;103125.03;5093473;28;20044;-63
2023/12/16 01:59:28;;;;;;;32.08;6.57;;;;;;;7.76;100.00;103137.41;5086630;28;20032;-62
2023/12/16 02:01:54;;;;;;;26.73;6.97;;;;;;;7.77;100.00;103140.19;5072753;28;20033;-61
2023/12/16 02:04:20;;;;;;;24.75;7.00;;;;;;;7.78;100.00;103130.59;5073174;28;20047;-61
2023/12/16 02:06:45;;;;;;;27.43;6.07;;;;;;;7.78;100.00;103136.78;5072665;28;20492;-61
2023/12/16 02:09:13;;;;;;;23.03;7.13;;;;;;;7.79;100.00;103137.72;5072595;28;20044;-62
2023/12/16 02:11:38;;;;;;;21.70;6.68;;;;;;;7.80;100.00;103150.06;5072711;28;20040;-62
2023/12/16 02:14:04;;;;;;;33.50;7.13;;;;;;;7.82;100.00;103146.81;5072615;28;20135;-62
2023/12/16 02:16:29;;;;;;;32.90;6.87;;;;;;;7.86;100.00;103150.63;5072548;28;20447;-62
2023/12/16 02:18:54;;;;;;;25.70;7.97;;;;;;;7.90;100.00;103154.44;5071365;28;20124;-61
2023/12/16 02:21:20;;;;;;;26.73;7.13;;;;;;;7.90;100.00;103158.00;5072000;28;20287;-61
2023/12/16 02:23:45;;;;;;;29.53;8.27;;;;;;;7.91;100.00;103145.75;5069278;28;20033;-61
2023/12/16 02:26:10;;;;;;;30.07;7.57;;;;;;;7.91;100.00;103143.13;5071840;28;20040;-61
2023/12/16 02:28:36;;;;;;;18.17;5.90;;;;;;;7.92;100.00;103130.13;5071504;28;20536;-61
2023/12/16 02:31:01;;;;;;;22.63;7.13;;;;;;;7.90;100.00;103123.78;5071886;28;20116;-62
2023/12/16 02:33:26;;;;;;;25.73;7.67;;;;;;;7.89;100.00;103124.59;5072062;28;20689;-62
2023/12/16 02:35:52;;;;;;;27.63;8.23;;;;;;;7.90;100.00;103120.22;5071866;28;20115;-62
2023/12/16 02:38:17;;;;;;;33.93;8.17;;;;;;;7.88;100.00;103130.63;5071912;28;20044;-62
2023/12/16 02:40:43;;;;;;;28.40;9.10;;;;;;;7.86;100.00;103126.94;5072024;28;20115;-62
2023/12/16 02:43:09;;;;;;;26.55;8.00;;;;;;;7.89;100.00;103128.94;5071995;28;20373;-61
2023/12/16 02:45:34;;;;;;;30.33;7.77;;;;;;;7.86;100.00;103134.81;5070618;28;20033;-61
2023/12/16 02:47:59;;;;;;;24.17;8.53;;;;;;;7.83;100.00;103150.34;5071670;28;20186;-61
2023/12/16 02:50:25;;;;;;;29.37;9.07;;;;;;;7.82;100.00;103151.13;5071000;28;20374;-63
2023/12/16 02:52:50;;;;;;;23.53;8.97;;;;;;;7.82;100.00;103143.25;5071560;28;20107;-61
2023/12/16 02:55:17;;;;;;;24.00;7.97;;;;;;;7.82;100.00;103140.59;5070891;28;20033;-61
2023/12/16 02:57:42;;;;;;;19.35;6.78;;;;;;;7.84;100.00;103143.38;5071522;28;20037;-63
2023/12/16 03:00:08;;;;;;;26.40;9.20;;;;;;;7.81;100.00;103130.88;5082303;28;20028;-61
2023/12/16 03:02:34;;;;;;;31.25;9.25;;;;;;;7.82;100.00;103138.91;5091619;28;20492;-61
2023/12/16 03:04:59;;;;;;;29.93;8.53;;;;;;;7.84;100.00;103133.78;5091573;28;20047;-61
2023/12/16 03:07:24;;;;;;;27.77;9.03;;;;;;;7.85;100.00;103129.41;5091283;28;20122;-62
2023/12/16 03:09:50;;;;;;;28.37;8.03;;;;;;;7.85;100.00;103127.72;5091011;28;20369;-61
2023/12/16 03:12:15;;;;;;;27.83;9.43;;;;;;;7.85;100.00;103140.88;5091348;28;20118;-62
2023/12/16 03:14:41;;;;;;;27.73;8.70;;;;;;;7.85;100.00;103143.50;5091467;28;20036;-61
2023/12/16 03:17:07;;;;;;;30.98;9.20;;;;;;;7.89;100.00;103145.66;5089953;28;20119;-62
2023/12/16 03:19:33;;;;;;;27.85;9.20;;;;;;;7.89;100.00;103150.91;5084697;28;20043;-63
2023/12/16 03:21:58;;;;;;;24.40;8.43;;;;;;;7.87;100.00;103149.84;5070744;28;20037;-62
2023/12/16 03:24:23;;;;;;;26.57;9.00;;;;;;;7.86;100.00;103155.88;5070322;28;20514;-62
2023/12/16 03:26:49;;;;;;;33.60;9.47;;;;;;;7.87;100.00;103151.53;5070950;28;20142;-62
2023/12/16 03:29:14;;;;;;;28.67;9.20;;;;;;;7.87;100.00;103157.72;5070153;28;20396;-62
2023/12/16 03:31:39;;;;;;;33.15;10.10;;;;;;;7.89;100.00;103160.50;5070087;28;20086;-62
2023/12/16 03:34:05;;;;;;;28.40;9.27;;;;;;;7.91;100.00;103165.13;5070823;28;20567;-62
2023/12/16 03:36:30;;;;;;;31.20;10.27;;;;;;;7.91;100.00;103173.00;5070218;28;20074;-63
2023/12/16 03:38:56;;;;;;;32.23;9.60;;;;;;;7.97;100.00;103170.00;5070306;28;20432;-62
2023/12/16 03:41:22;;;;;;;31.40;10.00;;;;;;;7.96;100.00;103182.25;5070649;28;20040;-62
2023/12/16 03:43:47;;;;;;;35.73;10.40;;;;;;;7.95;100.00;103180.38;5070383;28;20036;-62
2023/12/16 03:46:12;;;;;;;31.57;10.50;;;;;;;7.96;100.00;103179.59;5070614;28;20037;-62
2023/12/16 03:48:38;;;;;;;33.25;10.30;;;;;;;7.96;100.00;103174.34;5068464;28;20040;-63
2023/12/16 03:51:03;;;;;;;30.50;9.70;;;;;;;7.95;100.00;103180.38;5054427;28;20136;-62
2023/12/16 03:53:29;;;;;;;32.97;9.63;;;;;;;7.96;100.00;103176.97;5050096;28;20045;-62
2023/12/16 03:55:54;;;;;;;32.40;10.27;;;;;;;7.94;100.00;103175.94;5050198;28;20044;-62
2023/12/16 03:58:19;;;;;;;31.13;9.23;;;;;;;7.95;100.00;103177.75;5050182;28;20123;-63
2023/12/16 04:03:04;;;;;;;25.00;8.98;;;;;;;7.93;100.00;103165.25;5105916;27;20399;-63
2023/12/16 04:05:30;;;;;;;25.50;9.70;;;;;;;7.88;100.00;103159.59;5089135;28;20037;-61
2023/12/16 04:07:55;;;;;;;29.83;9.70;;;;;;;7.86;100.00;103166.41;5067457;28;20174;-62
2023/12/16 04:10:20;;;;;;;32.63;9.50;;;;;;;7.86;100.00;103169.03;5066765;28;20040;-61
2023/12/16 04:12:46;;;;;;;23.00;8.40;;;;;;;7.84;100.00;103178.53;5067066;28;20033;-61
2023/12/16 04:15:12;;;;;;;30.03;8.97;;;;;;;7.84;100.00;103170.63;5067192;28;20028;-61
2023/12/16 04:17:37;;;;;;;28.57;8.40;;;;;;;7.83;100.00;103171.41;5067930;28;20271;-61
2023/12/16 04:20:03;;;;;;;25.17;9.52;;;;;;;7.82;100.00;103166.91;5068179;28;20527;-62
2023/12/16 04:22:28;;;;;;;24.77;9.53;;;;;;;7.84;100.00;103161.81;5067170;28;20048;-61
2023/12/16 04:24:57;;;;;;;27.83;9.65;;;;;;;7.83;100.00;103166.16;5067434;28;20045;-62
2023/12/16 04:27:26;;;;;;;29.23;11.17;;;;;;;7.82;100.00;103172.19;5067058;28;20120;-61
2023/12/16 04:29:52;;;;;;;31.58;9.88;;;;;;;7.82;100.00;103173.13;5066323;28;20044;-62
2023/12/16 04:32:17;;;;;;;35.50;11.40;;;;;;;7.81;100.00;103172.97;5066755;28;20053;-61
2023/12/16 04:34:42;;;;;;;31.10;9.25;;;;;;;7.81;100.00;103172.97;5066824;28;20123;-61
2023/12/16 04:37:08;;;;;;;28.50;8.90;;;;;;;7.80;100.00;103173.75;5066770;28;20560;-61
2023/12/16 04:39:33;;;;;;;33.67;9.50;;;;;;;7.77;100.00;103179.66;5066280;28;20040;-61
2023/12/16 04:41:59;;;;;;;25.97;8.60;;;;;;;7.76;100.00;103167.28;5066553;28;20552;-61
2023/12/16 04:44:24;;;;;;;31.80;10.23;;;;;;;7.73;100.00;103174.00;5066351;28;20515;-62
2023/12/16 04:46:49;;;;;;;26.05;8.68;;;;;;;7.73;100.00;103174.00;5066455;28;20151;-62
2023/12/16 04:49:15;;;;;;;29.10;10.23;;;;;;;7.72;100.00;103165.16;5067089;28;20396;-62
2023/12/16 04:51:40;;;;;;;29.60;8.47;;;;;;;7.74;100.00;103173.22;5066684;28;20116;-61
2023/12/16 04:54:05;;;;;;;30.17;8.63;;;;;;;7.74;100.00;103166.25;5066420;28;20037;-61
2023/12/16 04:56:31;;;;;;;27.13;10.13;;;;;;;7.75;100.00;103177.66;5066427;28;20048;-61
2023/12/16 04:58:57;;;;;;;35.55;10.07;;;;;;;7.74;100.00;103160.97;5068480;28;20112;-62
2023/12/16 05:01:22;;;;;;;28.03;8.73;;;;;;;7.73;100.00;103158.19;5106666;28;20538;-62
2023/12/16 05:03:48;;;;;;;25.65;8.25;;;;;;;7.71;100.00;103171.22;5106664;28;20040;-62
2023/12/16 05:06:13;;;;;;;28.10;8.63;;;;;;;7.70;100.00;103181.59;5106875;28;20388;-62
2023/12/16 05:08:38;;;;;;;34.17;8.77;;;;;;;7.66;100.00;103176.81;5106264;28;20043;-62
2023/12/16 05:11:04;;;;;;;28.10;8.07;;;;;;;7.64;100.00;103175.78;5106748;28;20046;-62
2023/12/16 05:13:29;;;;;;;26.92;7.90;;;;;;;7.61;100.00;103178.13;5098302;28;20082;-62
2023/12/16 05:15:55;;;;;;;29.90;7.87;;;;;;;7.56;100.00;103174.16;5074798;28;20478;-61
2023/12/16 05:18:20;;;;;;;25.63;8.03;;;;;;;7.51;100.00;103170.16;5076949;28;20046;-62
2023/12/16 05:20:46;;;;;;;31.80;7.83;;;;;;;7.46;100.00;103168.81;5092024;28;20165;-63
2023/12/16 05:23:11;;;;;;;23.40;7.88;;;;;;;7.38;100.00;103160.25;5083461;28;20115;-61
2023/12/16 05:25:39;;;;;;;27.17;8.40;;;;;;;7.32;100.00;103171.13;5071864;28;20025;-62
2023/12/16 05:28:05;;;;;;;31.60;8.32;;;;;;;7.31;100.00;103171.91;5082976;28;20040;-63
2023/12/16 05:30:30;;;;;;;22.30;8.50;;;;;;;7.31;100.00;103171.91;5082777;28;20063;-62
2023/12/16 05:32:56;;;;;;;21.33;7.80;;;;;;;7.31;100.00;103170.97;5073294;28;20032;-62
2023/12/16 05:35:21;;;;;;;21.50;7.27;;;;;;;7.34;100.00;103174.81;5088091;28;20427;-61
2023/12/16 05:37:47;;;;;;;21.10;7.23;;;;;;;7.36;100.00;103175.88;5092434;28;20290;-61
2023/12/16 05:40:12;;;;;;;23.10;6.87;;;;;;;7.39;100.00;103175.25;5092472;28;20439;-62
2023/12/16 05:42:40;;;;;;;26.63;7.85;;;;;;;7.40;100.00;103187.59;5087184;28;20052;-61
2023/12/16 05:47:23;;;;;;;21.10;6.80;;;;;;;7.37;100.00;103197.84;5112623;27;20419;-64
2023/12/16 05:49:50;;;;;;;24.83;7.63;;;;;;;7.37;100.00;103193.50;5112626;28;20489;-60
2023/12/16 05:52:15;;;;;;;25.93;7.20;;;;;;;7.37;100.00;103185.63;5123343;28;20281;-61
2023/12/16 05:54:40;;;;;;;24.90;6.87;;;;;;;7.35;100.00;103184.53;5128492;27;20495;-59
2023/12/16 05:57:06;;;;;;;22.37;6.50;;;;;;;7.33;100.00;103183.50;5108013;28;20302;-59
2023/12/16 05:59:31;;;;;;;27.00;6.90;;;;;;;7.35;100.00;103194.16;5113730;28;20490;-59
2023/12/16 06:01:56;;;;;;;28.17;7.07;;;;;;;7.36;100.00;103199.53;5127966;27;20130;-62
2023/12/16 06:04:22;;;;;;;25.13;7.20;;;;;;;7.37;100.00;103196.13;5118687;28;20043;-60
2023/12/16 06:06:48;;;;;;;23.40;7.55;;;;;;;7.37;100.00;103193.50;5107689;28;20127;-62
2023/12/16 06:09:13;;;;;;;22.60;6.70;;;;;;;7.38;100.00;103205.88;5107508;28;20608;-60
2023/12/16 06:11:39;;;;;;;23.85;6.22;;;;;;;7.41;100.00;103215.72;5107664;28;20123;-61
2023/12/16 06:14:04;;;;;;;22.60;6.10;;;;;;;7.43;100.00;103210.63;5113238;28;20050;-62
2023/12/16 06:16:30;;;;;;;26.43;6.60;;;;;;;7.48;100.00;103223.41;5117190;28;20149;-62
2023/12/16 06:18:55;;;;;;;17.63;5.63;;;;;;;7.50;100.00;103213.06;5113055;28;20039;-62
2023/12/16 06:21:20;;;;;;;28.57;6.07;;;;;;;7.52;100.00;103211.47;5107598;28;20294;-62
2023/12/16 06:23:46;;;;;;;16.43;6.40;;;;;;;7.56;100.00;103218.84;5106774;28;20067;-62
2023/12/16 06:26:11;;;;;;;26.40;6.90;;;;;;;7.57;100.00;103218.06;5107563;28;20036;-62
2023/12/16 06:28:36;;;;;;;19.77;5.97;;;;;;;7.58;100.00;103215.59;5106507;28;20040;-65
2023/12/16 06:31:02;;;;;;;25.42;6.10;;;;;;;7.61;100.00;103221.13;5106701;28;20062;-65
2023/12/16 06:33:27;;;;;;;20.83;5.73;;;;;;;7.62;100.00;103222.06;5106534;28;20035;-67
2023/12/16 06:35:54;;;;;;;21.17;5.73;;;;;;;7.63;100.00;103223.91;5106212;28;20462;-64
2023/12/16 06:38:19;;;;;;;20.50;5.95;;;;;;;7.64;100.00;103215.25;5089294;28;20449;-65
2023/12/16 06:40:45;;;;;;;24.90;5.60;;;;;;;7.67;100.00;103202.34;5104749;28;20077;-65
2023/12/16 06:43:10;;;;;;;20.55;5.20;;;;;;;7.68;100.00;103198.94;5111239;28;20043;-65
2023/12/16 06:45:38;;;;;;;18.13;4.83;;;;;;;7.69;100.00;103198.19;5102935;27;20040;-65
2023/12/16 06:48:04;;;;;;;21.60;6.13;;;;;;;7.69;100.00;103195.53;5097662;28;20061;-65
2023/12/16 06:50:29;;;;;;;21.60;5.10;;;;;;;7.69;100.00;103198.19;5106361;28;20035;-65
2023/12/16 06:52:54;;;;;;;19.63;4.57;;;;;;;7.67;100.00;103207.63;5106185;28;20050;-65
2023/12/16 06:55:20;;;;;;;19.98;5.78;;;;;;;7.68;100.00;103215.66;5086332;28;20115;-66
2023/12/16 06:57:45;;;;;;;17.20;5.53;;;;;;;7.68;100.00;103220.00;5103945;28;20047;-66
2023/12/16 07:00:11;;;;;;;17.77;5.20;;;;;;;7.69;100.00;103219.22;5100506;28;20148;-66
2023/12/16 07:02:37;;;;;;;18.73;5.25;;;;;;;7.72;100.00;103224.75;5092411;28;20055;-66
2023/12/16 07:05:03;;;;;;;19.87;5.03;;;;;;;7.74;100.00;103215.31;5092205;28;20101;-65
2023/12/16 07:07:28;;;;;;;22.33;5.75;;;;;;;7.74;100.00;103224.13;5092948;28;20040;-66
2023/12/16 07:09:54;;;;;;;22.47;5.70;;;;;;;7.76;100.00;103222.53;5092316;28;20111;-65
2023/12/16 07:12:19;;;;;;;16.05;4.78;;;;;;;7.79;100.00;103232.44;5083756;28;20380;-65
2023/12/16 07:14:44;;;;;;;23.43;4.73;;;;;;;7.80;100.00;103223.72;5096546;28;20048;-66
2023/12/16 07:17:10;;;;;;;13.50;4.70;;;;;;;7.83;100.00;103229.28;5095699;28;20035;-65
2023/12/16 07:19:35;;;;;;;18.50;4.60;;;;;;;7.84;100.00;103231.16;5092147;28;20135;-65
2023/12/16 07:22:01;;;;;;;14.57;4.97;;;;;;;7.86;100.00;103220.75;5098051;28;20032;-65
2023/12/16 07:24:26;;;;;;;19.23;4.57;;;;;;;7.87;100.00;103222.59;5093552;28;20051;-65
2023/12/16 07:26:52;;;;;;;14.10;4.17;;;;;;;7.87;100.00;103225.22;5091621;28;20115;-64
2023/12/16 07:29:17;;;;;;;14.05;3.88;;;;;;;7.86;100.00;103226.00;5091122;28;20040;-65
2023/12/16 07:31:50;;;;;;;20.47;5.40;;;;;;;7.89;99.90;103218.41;5091313;28;20653;-66
2023/12/16 07:34:16;;;;;;;15.95;4.07;;;;;;;7.91;99.60;103217.75;5090943;28;20472;-67
2023/12/16 07:36:41;;;;;;;16.03;4.87;;;;;;;7.93;98.63;103216.19;5090715;28;20107;-66
2023/12/16 07:39:06;;;;;;;19.33;4.87;;;;;;;7.95;98.04;103213.66;5090998;28;20096;-65
2023/12/16 07:41:34;;;;;;;24.10;4.40;;;;;;;7.97;97.83;103223.56;5091277;28;20384;-65
2023/12/16 07:43:59;;;;;;;22.98;4.72;;;;;;;7.97;97.47;103218.31;5091598;28;20039;-65
2023/12/16 07:46:24;;;;;;;20.13;5.07;;;;;;;7.97;96.58;103210.41;5087557;28;20127;-65
2023/12/16 07:48:50;;;;;;;17.00;4.30;;;;;;;7.97;96.23;103222.66;5093320;28;20032;-65
2023/12/16 07:51:16;;;;;;;14.97;4.33;;;;;;;7.99;96.54;103229.88;5092043;28;20039;-65
2023/12/16 07:53:47;;;;;;;11.55;3.95;;;;;;;8.04;95.99;103240.84;5085882;28;20040;-65
2023/12/16 07:56:19;;;;;;;15.35;3.97;;;;;;;8.03;95.81;103234.66;5098214;28;20032;-67
2023/12/16 07:58:45;;;;;;;15.93;4.60;;;;;;;8.05;95.18;103247.94;5096587;28;20047;-66
2023/12/16 08:01:14;;;;;;;15.70;4.00;;;;;;;8.06;95.28;103239.25;5102125;28;20024;-67
2023/12/16 08:03:39;;;;;;;12.57;3.92;;;;;;;8.09;95.06;103245.72;5091573;28;20054;-67
2023/12/16 08:06:05;;;;;;;16.73;4.43;;;;;;;8.09;95.26;103250.97;5106760;28;20168;-67
2023/12/16 08:08:30;;;;;;;12.83;3.73;;;;;;;8.08;95.05;103245.59;5111147;28;20035;-67
2023/12/16 08:10:55;;;;;;;16.77;3.37;;;;;;;8.13;95.34;103249.56;5111395;28;20041;-65
2023/12/16 08:13:21;;;;;;;20.97;4.20;;;;;;;8.14;94.82;103254.06;5106456;28;20111;-63
2023/12/16 08:15:46;;;;;;;15.80;3.88;;;;;;;8.12;94.76;103245.09;5091702;28;20032;-62
2023/12/16 08:18:12;;;;;;;12.57;3.67;;;;;;;8.19;94.85;103258.94;5092958;28;20110;-64
2023/12/16 08:20:37;;;;;;;17.38;4.20;;;;;;;8.25;94.69;103258.56;5092248;28;20043;-65
2023/12/16 08:23:05;;;;;;;14.87;4.27;;;;;;;8.26;94.57;103255.16;5098954;28;20043;-65
2023/12/16 08:25:31;;;;;;;14.90;3.45;;;;;;;8.24;94.42;103268.16;5093951;28;20031;-65
2023/12/16 08:27:56;;;;;;;11.93;3.93;;;;;;;8.25;94.22;103274.34;5100515;28;20096;-67
2023/12/16 08:30:21;;;;;;;11.60;3.80;;;;;;;8.25;93.94;103269.09;5103764;28;20039;-68
2023/12/16 08:32:47;;;;;;;12.77;3.80;;;;;;;8.28;93.58;103263.19;5111453;28;20043;-66
2023/12/16 08:35:14;;;;;;;14.57;3.47;;;;;;;8.24;93.47;103268.16;5093594;28;20460;-66
2023/12/16 08:37:40;;;;;;;11.68;3.53;;;;;;;8.24;93.02;103261.97;5091608;28;20040;-67
2023/12/16 08:40:06;;;;;;;11.00;3.27;;;;;;;8.26;93.15;103260.41;5090649;28;20044;-67
2023/12/16 08:42:32;;;;;;;16.65;3.72;;;;;;;8.27;92.85;103256.06;5092538;28;20040;-66
2023/12/16 08:44:57;;;;;;;11.23;3.57;;;;;;;8.24;92.95;103247.09;5112296;28;20038;-64
2023/12/16 08:47:22;;;;;;;13.25;3.55;;;;;;;8.27;93.22;103246.47;5111994;28;20482;-66
2023/12/16 08:49:48;;;;;;;12.77;3.40;;;;;;;8.29;93.33;103246.63;5111444;28;20107;-67
2023/12/16 08:52:13;;;;;;;12.80;3.87;;;;;;;8.32;93.23;103249.56;5111590;28;20135;-67
2023/12/16 08:54:41;;;;;;;11.97;3.60;;;;;;;8.34;93.01;103251.50;5111581;28;20032;-66
2023/12/16 08:57:06;;;;;;;13.98;3.40;;;;;;;8.34;92.65;103248.00;5111101;28;20038;-66
2023/12/16 08:59:31;;;;;;;19.43;3.87;;;;;;;8.38;92.37;103255.38;5108279;28;20032;-65
2023/12/16 09:01:57;;;;;;;16.07;4.00;;;;;;;8.42;92.35;103254.84;5111436;28;20410;-65
2023/12/16 09:04:22;;;;;;;11.30;3.30;;;;;;;8.47;91.96;103254.47;5111557;28;20311;-66
2023/12/16 09:06:48;;;;;;;18.03;3.30;;;;;;;8.49;91.51;103244.97;5111226;28;20039;-69
2023/12/16 09:09:17;;;;;;;16.35;3.35;;;;;;;8.52;91.07;103246.97;5110715;28;20031;-66
2023/12/16 09:11:45;;;;;;;10.07;3.40;;;;;;;8.54;90.79;103259.50;5111247;28;20051;-67
2023/12/16 09:14:10;;;;;;;15.07;2.83;;;;;;;8.54;89.92;103253.28;5111603;28;20036;-67
2023/12/16 09:16:36;;;;;;;12.27;3.03;;;;;;;8.55;89.52;103241.97;5111445;28;20085;-65
2023/12/16 09:19:03;;;;;;;11.03;2.90;;;;;;;8.57;89.19;103240.41;5111369;28;20475;-70
2023/12/16 09:21:28;;;;;;;10.38;3.03;;;;;;;8.62;88.60;103236.47;5110936;28;20035;-66
2023/12/16 09:23:54;;;;;;;15.87;2.87;;;;;;;8.66;88.54;103233.31;5110878;28;20548;-68
2023/12/16 09:26:21;;;;;;;13.30;2.85;;;;;;;8.69;87.47;103233.56;5110744;28;20094;-66
2023/12/16 09:28:47;;;;;;;11.88;2.55;;;;;;;8.76;87.06;103238.59;5110423;28;20080;-66
2023/12/16 09:31:13;;;;;;;13.07;2.63;;;;;;;8.81;87.00;103231.09;5091962;28;20104;-67
2023/12/16 09:33:38;;;;;;;10.63;2.60;;;;;;;8.86;86.42;103227.16;5097787;28;20031;-67
2023/12/16 09:36:04;;;;;;;10.27;2.50;;;;;;;8.92;86.30;103233.88;5110780;28;20361;-67
2023/12/16 09:38:29;;;;;;;8.33;2.37;;;;;;;8.94;85.88;103227.03;5110485;28;20314;-66
2023/12/16 09:40:56;;;;;;;14.60;2.57;;;;;;;8.97;85.92;103219.41;5110363;28;20036;-65
2023/12/16 09:43:22;;;;;;;9.17;2.67;;;;;;;8.92;85.83;103215.44;5110863;28;20437;-67
2023/12/16 09:45:48;;;;;;;8.48;2.30;;;;;;;8.92;86.13;103218.06;5110426;28;20031;-65
2023/12/16 09:48:16;;;;;;;8.68;2.20;;;;;;;8.97;85.24;103229.94;5110547;28;20115;-65
2023/12/16 09:50:41;;;;;;;12.70;2.67;;;;;;;9.08;84.53;103233.47;5110105;28;20085;-65
2023/12/16 09:53:07;;;;;;;8.40;2.10;;;;;;;9.14;83.71;103234.00;5091877;28;20888;-66
2023/12/16 09:55:32;;;;;;;11.43;3.17;;;;;;;9.16;83.05;103234.16;5110414;27;20490;-66
2023/12/16 09:57:59;;;;;;;8.98;1.60;;;;;;;9.19;82.13;103239.69;5110348;28;20085;-69
2023/12/16 10:00:30;;;;;;;14.37;2.73;;;;;;;9.20;81.71;103239.81;5096133;28;20079;-69
2023/12/16 10:02:57;;;;;;;12.40;2.15;;;;;;;9.25;81.47;103251.69;5090352;28;20039;-67
2023/12/16 10:05:26;;;;;;;13.20;1.95;;;;;;;9.33;81.60;103249.69;5090065;28;20068;-68
2023/12/16 10:08:01;;;;;;;13.63;2.28;;;;;;;9.36;81.30;103242.06;5089523;28;20075;-68
2023/12/16 10:10:26;;;;;;;7.60;2.40;;;;;;;9.32;80.31;103222.44;5089656;28;20058;-67
2023/12/16 10:12:52;;;;;;;11.47;2.37;;;;;;;9.31;79.96;103210.03;5089717;28;20130;-68
2023/12/16 10:15:34;;;;;;;8.33;2.07;;;;;;;9.26;79.02;103210.41;5089343;28;20040;-66
2023/12/16 10:18:03;;;;;;;24.45;6.00;;;;;;;9.42;79.87;103211.81;5089640;28;20043;-64
2023/12/16 10:20:31;;;;;;;19.38;4.68;;;;;;;10.07;82.81;103204.91;5088862;28;20537;-66
2023/12/16 10:23:01;;;;;;;16.77;2.75;;;;;;;10.47;85.27;103183.59;5073156;28;20064;-67
2023/12/16 10:25:29;;;;;;;10.07;2.65;;;;;;;10.33;85.46;103176.28;5069189;28;20404;-68
2023/12/16 10:28:00;;;;;;;12.00;2.73;;;;;;;10.01;85.06;103170.09;5074011;28;20036;-68
2023/12/16 10:30:25;;;;;;;12.00;2.40;;;;;;;9.79;84.27;103168.34;5073520;28;20037;-68
2023/12/16 10:32:51;;;;;;;13.73;1.80;;;;;;;9.73;83.90;103175.75;5072232;28;20119;-68
2023/12/16 10:35:16;;;;;;;9.68;2.13;;;;;;;9.68;82.82;103184.06;5114196;28;20032;-68
2023/12/16 10:37:49;;;;;;;14.70;2.20;;;;;;;9.64;82.55;103188.19;5115831;28;20084;-68
2023/12/16 10:40:15;;;;;;;13.68;2.30;;;;;;;9.67;81.75;103195.44;5081040;28;20469;-68
2023/12/16 10:42:41;;;;;;;15.10;4.27;;;;;;;10.22;82.83;103186.00;5072645;28;20036;-63
2023/12/16 10:45:07;;;;;;;16.20;2.67;;;;;;;10.86;82.89;103185.84;5072805;28;20045;-67
2023/12/16 10:47:34;;;;;;;9.87;1.83;;;;;;;10.74;80.52;103188.44;5073167;28;20455;-68
2023/12/16 10:50:02;;;;;;;11.20;2.78;;;;;;;10.54;79.57;103175.38;5072767;28;20082;-67
2023/12/16 10:52:40;;;;;;;10.88;2.40;;;;;;;10.43;78.26;103176.25;5073019;28;20132;-68
2023/12/16 10:55:11;;;;;;;10.52;2.30;;;;;;;10.35;77.26;103183.56;5073026;28;20070;-67
2023/12/16 10:57:47;;;;;;;9.77;1.83;;;;;;;10.26;77.28;103171.34;5088830;28;20037;-67
2023/12/16 11:00:27;;;;;;;11.13;2.10;;;;;;;10.16;77.43;103168.75;5112684;27;20031;-67
2023/12/16 11:03:12;;;;;;;10.45;1.80;;;;;;;10.11;76.49;103159.50;5113903;28;20130;-67
2023/12/16 11:05:52;;;;;;;16.73;3.13;;;;;;;10.09;75.99;103167.28;5113538;27;20494;-66
2023/12/16 11:08:18;;;;;;;13.15;1.92;;;;;;;10.14;75.48;103154.44;5102773;28;20131;-66
2023/12/16 11:10:44;;;;;;;13.20;2.40;;;;;;;10.18;75.20;103159.22;5091540;28;20391;-66
2023/12/16 11:13:10;;;;;;;6.63;1.67;;;;;;;10.21;74.19;103146.28;5095584;28;20089;-67
2023/12/16 11:15:36;;;;;;;12.77;2.08;;;;;;;10.18;73.76;103148.66;5095614;28;20043;-68
2023/12/16 11:18:11;;;;;;;9.20;2.00;;;;;;;10.21;74.28;103146.28;5104646;28;20027;-68
2023/12/16 11:20:47;;;;;;;8.43;2.13;;;;;;;10.23;74.38;103142.03;5112745;28;20046;-70